Auburn, Mississippi
Current Conditions -  °F | °C
As of 10:53 AM on Friday 31 Oct 2014 (Local Time) from KMCB Reporting Station
Clear Clear  
Wind Chill: 18°   Ceiling: Unl
Heat Index: 18°   Visibility: 10mi
Dew Point:   Wind: 12mph
Humidity: 50%   Direction: 340°NNW
Pressure: 30.07"   Gusts: NA
Location:  31.3682°N, 90.6714°W
Report Text: KMCB 311553Z AUTO 34010KT 10SM CLR 18/08 A3007 RMK AO2 SLP181 T01830078
Loading
Personal Weather Stations






























Interactive Weather Map
Tropical Storm Tracking
New forecast layout! Learn more

10-Day Weather Forecast

Advertisements
Track Severe Weather on mobile